sensor_id;sensor_type;location;lat;lon;timestamp;pressure;altitude;pressure_sealevel;temperature;humidity
29549;BME280;16487;53.094;8.800;2023-08-30T00:00:24;99452.06;;;16.16;100.00
29549;BME280;16487;53.094;8.800;2023-08-30T00:02:52;99446.47;;;16.10;100.00
29549;BME280;16487;53.094;8.800;2023-08-30T00:05:19;99448.50;;;16.10;100.00
29549;BME280;16487;53.094;8.800;2023-08-30T00:07:46;99446.72;;;16.07;100.00
29549;BME280;16487;53.094;8.800;2023-08-30T00:10:15;99432.69;;;16.07;100.00
29549;BME280;16487;53.094;8.800;2023-08-30T00:12:42;99435.75;;;16.09;100.00
29549;BME280;16487;53.094;8.800;2023-08-30T00:15:09;99436.25;;;16.01;100.00
29549;BME280;16487;53.094;8.800;2023-08-30T00:17:36;99440.31;;;15.95;100.00
29549;BME280;16487;53.094;8.800;2023-08-30T00:20:04;99445.94;;;16.06;100.00
29549;BME280;16487;53.094;8.800;2023-08-30T00:22:32;99434.19;;;16.08;100.00
29549;BME280;16487;53.094;8.800;2023-08-30T00:24:59;99426.53;;;16.02;100.00
29549;BME280;16487;53.094;8.800;2023-08-30T00:27:28;99424.50;;;15.97;100.00
29549;BME280;16487;53.094;8.800;2023-08-30T00:29:55;99429.09;;;15.95;100.00
29549;BME280;16487;53.094;8.800;2023-08-30T00:32:22;99431.13;;;16.05;100.00
29549;BME280;16487;53.094;8.800;2023-08-30T00:34:50;99443.66;;;16.04;100.00
29549;BME280;16487;53.094;8.800;2023-08-30T00:37:17;99454.13;;;15.98;100.00
29549;BME280;16487;53.094;8.800;2023-08-30T00:39:44;99434.47;;;15.87;100.00
29549;BME280;16487;53.094;8.800;2023-08-30T00:42:11;99433.44;;;15.90;100.00
29549;BME280;16487;53.094;8.800;2023-08-30T00:44:40;99426.78;;;15.93;100.00
29549;BME280;16487;53.094;8.800;2023-08-30T00:47:07;99423.50;;;15.89;100.00
29549;BME280;16487;53.094;8.800;2023-08-30T00:49:34;99425.28;;;15.87;100.00
29549;BME280;16487;53.094;8.800;2023-08-30T00:52:05;99432.16;;;15.91;100.00
29549;BME280;16487;53.094;8.800;2023-08-30T00:54:33;99426.03;;;15.87;100.00
29549;BME280;16487;53.094;8.800;2023-08-30T00:57:01;99437.78;;;15.91;100.00
29549;BME280;16487;53.094;8.800;2023-08-30T00:59:29;99433.97;;;15.89;100.00
29549;BME280;16487;53.094;8.800;2023-08-30T01:02:00;99441.63;;;15.94;100.00
29549;BME280;16487;53.094;8.800;2023-08-30T01:04:28;99444.41;;;15.88;100.00
29549;BME280;16487;53.094;8.800;2023-08-30T01:06:55;99452.09;;;15.82;100.00
29549;BME280;16487;53.094;8.800;2023-08-30T01:09:23;99448.00;;;15.83;100.00
29549;BME280;16487;53.094;8.800;2023-08-30T01:11:56;99450.81;;;15.89;100.00
29549;BME280;16487;53.094;8.800;2023-08-30T01:14:35;99449.03;;;15.80;100.00
29549;BME280;16487;53.094;8.800;2023-08-30T01:17:05;99458.22;;;15.75;100.00
29549;BME280;16487;53.094;8.800;2023-08-30T01:19:41;99457.72;;;15.77;100.00
29549;BME280;16487;53.094;8.800;2023-08-30T01:22:15;99464.09;;;15.83;100.00
29549;BME280;16487;53.094;8.800;2023-08-30T01:24:48;99455.13;;;15.84;100.00
29549;BME280;16487;53.094;8.800;2023-08-30T01:27:23;99444.16;;;15.70;100.00
29549;BME280;16487;53.094;8.800;2023-08-30T01:29:54;99434.97;;;15.69;100.00
29549;BME280;16487;53.094;8.800;2023-08-30T01:32:24;99449.28;;;15.88;100.00
29549;BME280;16487;53.094;8.800;2023-08-30T01:34:51;99445.69;;;15.82;100.00
29549;BME280;16487;53.094;8.800;2023-08-30T01:37:18;99445.97;;;15.78;100.00
29549;BME280;16487;53.094;8.800;2023-08-30T01:39:48;99446.72;;;15.79;100.00
29549;BME280;16487;53.094;8.800;2023-08-30T01:42:16;99463.84;;;15.75;100.00
29549;BME280;16487;53.094;8.800;2023-08-30T01:44:44;99455.16;;;15.73;100.00
29549;BME280;16487;53.094;8.800;2023-08-30T01:47:14;99461.78;;;15.76;100.00
29549;BME280;16487;53.094;8.800;2023-08-30T01:49:42;99465.09;;;15.80;100.00
29549;BME280;16487;53.094;8.800;2023-08-30T01:52:10;99472.75;;;15.79;100.00
29549;BME280;16487;53.094;8.800;2023-08-30T01:54:39;99463.59;;;15.79;100.00
29549;BME280;16487;53.094;8.800;2023-08-30T01:57:07;99468.19;;;15.82;100.00
29549;BME280;16487;53.094;8.800;2023-08-30T01:59:34;99451.31;;;15.76;100.00
29549;BME280;16487;53.094;8.800;2023-08-30T02:02:03;99446.22;;;15.86;100.00
29549;BME280;16487;53.094;8.800;2023-08-30T02:04:30;99426.03;;;15.87;100.00
29549;BME280;16487;53.094;8.800;2023-08-30T02:07:00;99406.88;;;15.75;100.00
29549;BME280;16487;53.094;8.800;2023-08-30T02:09:36;99398.19;;;15.78;100.00
29549;BME280;16487;53.094;8.800;2023-08-30T02:12:13;99398.97;;;15.73;100.00
29549;BME280;16487;53.094;8.800;2023-08-30T02:14:44;99412.00;;;15.76;100.00
29549;BME280;16487;53.094;8.800;2023-08-30T02:17:15;99397.94;;;15.76;100.00
29549;BME280;16487;53.094;8.800;2023-08-30T02:19:42;99406.38;;;15.76;100.00
29549;BME280;16487;53.094;8.800;2023-08-30T02:22:10;99404.06;;;15.69;100.00
29549;BME280;16487;53.094;8.800;2023-08-30T02:24:37;99405.34;;;15.68;100.00
29549;BME280;16487;53.094;8.800;2023-08-30T02:27:04;99408.44;;;15.70;100.00
29549;BME280;16487;53.094;8.800;2023-08-30T02:29:33;99405.84;;;15.72;100.00
29549;BME280;16487;53.094;8.800;2023-08-30T02:32:00;99400.00;;;15.70;100.00
29549;BME280;16487;53.094;8.800;2023-08-30T02:34:28;99409.19;;;15.76;100.00
29549;BME280;16487;53.094;8.800;2023-08-30T02:36:55;99398.72;;;15.82;100.00
29549;BME280;16487;53.094;8.800;2023-08-30T02:39:24;99400.22;;;15.72;100.00
29549;BME280;16487;53.094;8.800;2023-08-30T02:41:51;99395.91;;;15.82;100.00
29549;BME280;16487;53.094;8.800;2023-08-30T02:44:18;99394.09;;;15.79;100.00
29549;BME280;16487;53.094;8.800;2023-08-30T02:46:46;99396.16;;;15.79;100.00
29549;BME280;16487;53.094;8.800;2023-08-30T02:49:13;99389.78;;;15.78;100.00
29549;BME280;16487;53.094;8.800;2023-08-30T02:51:41;99395.91;;;15.82;100.00
29549;BME280;16487;53.094;8.800;2023-08-30T02:54:08;99380.84;;;15.85;100.00
29549;BME280;16487;53.094;8.800;2023-08-30T02:56:35;99390.78;;;15.92;100.00
29549;BME280;16487;53.094;8.800;2023-08-30T02:59:02;99397.44;;;15.94;100.00
29549;BME280;16487;53.094;8.800;2023-08-30T03:01:30;99393.59;;;15.86;100.00
29549;BME280;16487;53.094;8.800;2023-08-30T03:03:57;99404.06;;;15.80;100.00
29549;BME280;16487;53.094;8.800;2023-08-30T03:06:24;99407.13;;;15.71;100.00
29549;BME280;16487;53.094;8.800;2023-08-30T03:08:54;99417.88;;;15.78;100.00
29549;BME280;16487;53.094;8.800;2023-08-30T03:11:23;99414.78;;;15.76;100.00
29549;BME280;16487;53.094;8.800;2023-08-30T03:13:53;99422.72;;;15.67;100.00
29549;BME280;16487;53.094;8.800;2023-08-30T03:16:20;99428.84;;;15.60;100.00
29549;BME280;16487;53.094;8.800;2023-08-30T03:18:48;99431.66;;;15.54;100.00
29549;BME280;16487;53.094;8.800;2023-08-30T03:21:15;99441.31;;;15.53;100.00
29549;BME280;16487;53.094;8.800;2023-08-30T03:23:42;99451.53;;;15.45;100.00
29549;BME280;16487;53.094;8.800;2023-08-30T03:26:12;99463.22;;;15.38;100.00
29549;BME280;16487;53.094;8.800;2023-08-30T03:28:40;99482.09;;;15.38;100.00
29549;BME280;16487;53.094;8.800;2023-08-30T03:31:12;99483.38;;;15.31;100.00
29549;BME280;16487;53.094;8.800;2023-08-30T03:33:40;99498.44;;;15.28;100.00
29549;BME280;16487;53.094;8.800;2023-08-30T03:36:11;99509.13;;;15.24;100.00
29549;BME280;16487;53.094;8.800;2023-08-30T03:38:38;99517.28;;;15.17;100.00
29549;BME280;16487;53.094;8.800;2023-08-30T03:41:06;99528.25;;;15.15;100.00
29549;BME280;16487;53.094;8.800;2023-08-30T03:43:34;99537.41;;;15.15;100.00
29549;BME280;16487;53.094;8.800;2023-08-30T03:46:02;99537.41;;;15.10;100.00
29549;BME280;16487;53.094;8.800;2023-08-30T03:48:30;99544.03;;;15.12;100.00
29549;BME280;16487;53.094;8.800;2023-08-30T03:50:58;99547.31;;;15.05;100.00
29549;BME280;16487;53.094;8.800;2023-08-30T03:53:26;99560.56;;;14.99;100.00
29549;BME280;16487;53.094;8.800;2023-08-30T03:55:53;99578.13;;;15.00;100.00
29549;BME280;16487;53.094;8.800;2023-08-30T03:58:20;99581.19;;;14.96;100.00
29549;BME280;16487;53.094;8.800;2023-08-30T04:00:51;99603.06;;;14.86;100.00
29549;BME280;16487;53.094;8.800;2023-08-30T04:03:18;99627.28;;;14.84;100.00
29549;BME280;16487;53.094;8.800;2023-08-30T04:05:45;99645.09;;;14.81;100.00
29549;BME280;16487;53.094;8.800;2023-08-30T04:08:13;99657.56;;;14.74;100.00
29549;BME280;16487;53.094;8.800;2023-08-30T04:10:41;99683.28;;;14.73;100.00
29549;BME280;16487;53.094;8.800;2023-08-30T04:13:08;99713.88;;;14.71;100.00
29549;BME280;16487;53.094;8.800;2023-08-30T04:15:37;99741.69;;;14.74;100.00
29549;BME280;16487;53.094;8.800;2023-08-30T04:18:06;99751.41;;;14.79;100.00
29549;BME280;16487;53.094;8.800;2023-08-30T04:20:34;99761.38;;;14.80;100.00
29549;BME280;16487;53.094;8.800;2023-08-30T04:23:02;99770.31;;;14.78;100.00
29549;BME280;16487;53.094;8.800;2023-08-30T04:25:33;99780.97;;;14.74;100.00
29549;BME280;16487;53.094;8.800;2023-08-30T04:28:01;99795.50;;;14.73;100.00
29549;BME280;16487;53.094;8.800;2023-08-30T04:30:29;99811.75;;;14.69;100.00
29549;BME280;16487;53.094;8.800;2023-08-30T04:32:57;99825.06;;;14.74;100.00
29549;BME280;16487;53.094;8.800;2023-08-30T04:35:26;99823.75;;;14.69;100.00
29549;BME280;16487;53.094;8.800;2023-08-30T04:37:53;99838.00;;;14.66;100.00
29549;BME280;16487;53.094;8.800;2023-08-30T04:40:20;99835.28;;;14.77;100.00
29549;BME280;16487;53.094;8.800;2023-08-30T04:42:47;99832.75;;;14.79;100.00
29549;BME280;16487;53.094;8.800;2023-08-30T04:45:14;99802.47;;;14.83;100.00
29549;BME280;16487;53.094;8.800;2023-08-30T04:47:42;99804.72;;;14.79;100.00
29549;BME280;16487;53.094;8.800;2023-08-30T04:50:10;99795.78;;;14.75;100.00
29549;BME280;16487;53.094;8.800;2023-08-30T04:52:39;99801.09;;;14.73;100.00
29549;BME280;16487;53.094;8.800;2023-08-30T04:55:07;99802.31;;;14.66;100.00
29549;BME280;16487;53.094;8.800;2023-08-30T04:57:35;99821.16;;;14.66;100.00
29549;BME280;16487;53.094;8.800;2023-08-30T05:00:05;99834.91;;;14.64;100.00
29549;BME280;16487;53.094;8.800;2023-08-30T05:02:33;99857.63;;;14.66;100.00
29549;BME280;16487;53.094;8.800;2023-08-30T05:05:07;99862.66;;;14.62;100.00
29549;BME280;16487;53.094;8.800;2023-08-30T05:07:34;99884.09;;;14.65;100.00
29549;BME280;16487;53.094;8.800;2023-08-30T05:10:05;99909.09;;;14.63;100.00
29549;BME280;16487;53.094;8.800;2023-08-30T05:12:33;99935.56;;;14.62;100.00
29549;BME280;16487;53.094;8.800;2023-08-30T05:15:01;99944.00;;;14.62;100.00
29549;BME280;16487;53.094;8.800;2023-08-30T05:17:28;99991.19;;;14.63;100.00
29549;BME280;16487;53.094;8.800;2023-08-30T05:19:56;100008.22;;;14.60;100.00
29549;BME280;16487;53.094;8.800;2023-08-30T05:22:23;100021.06;;;14.66;100.00
29549;BME280;16487;53.094;8.800;2023-08-30T05:24:51;100029.94;;;14.65;100.00
29549;BME280;16487;53.094;8.800;2023-08-30T05:27:22;100040.50;;;14.70;100.00
29549;BME280;16487;53.094;8.800;2023-08-30T05:29:50;100038.09;;;14.63;100.00
29549;BME280;16487;53.094;8.800;2023-08-30T05:32:18;100052.56;;;14.76;100.00
29549;BME280;16487;53.094;8.800;2023-08-30T05:35:04;100051.16;;;14.86;100.00
29549;BME280;16487;53.094;8.800;2023-08-30T05:37:50;100045.22;;;14.78;100.00
29549;BME280;16487;53.094;8.800;2023-08-30T05:40:36;100046.34;;;14.86;100.00
29549;BME280;16487;53.094;8.800;2023-08-30T05:43:04;100033.38;;;14.89;100.00
29549;BME280;16487;53.094;8.800;2023-08-30T05:45:31;100028.72;;;14.86;100.00
29549;BME280;16487;53.094;8.800;2023-08-30T05:47:58;100036.84;;;14.84;100.00
29549;BME280;16487;53.094;8.800;2023-08-30T05:50:26;100049.41;;;14.88;100.00
29549;BME280;16487;53.094;8.800;2023-08-30T05:52:53;100055.25;;;14.85;100.00
29549;BME280;16487;53.094;8.800;2023-08-30T05:55:21;100043.19;;;14.99;100.00
29549;BME280;16487;53.094;8.800;2023-08-30T05:57:48;100035.25;;;14.98;100.00
29549;BME280;16487;53.094;8.800;2023-08-30T06:00:17;100027.25;;;15.11;100.00
29549;BME280;16487;53.094;8.800;2023-08-30T06:02:44;100022.41;;;15.11;100.00
29549;BME280;16487;53.094;8.800;2023-08-30T06:05:11;100025.50;;;15.13;100.00
29549;BME280;16487;53.094;8.800;2023-08-30T06:07:38;100008.94;;;15.15;100.00
29549;BME280;16487;53.094;8.800;2023-08-30T06:10:06;100004.94;;;15.22;100.00
29549;BME280;16487;53.094;8.800;2023-08-30T06:12:34;99992.00;;;15.30;100.00
29549;BME280;16487;53.094;8.800;2023-08-30T06:15:01;99980.50;;;15.28;100.00
29549;BME280;16487;53.094;8.800;2023-08-30T06:17:29;99962.41;;;15.29;100.00
29549;BME280;16487;53.094;8.800;2023-08-30T06:19:56;99951.28;;;15.40;100.00
29549;BME280;16487;53.094;8.800;2023-08-30T06:22:23;99929.31;;;15.38;100.00
29549;BME280;16487;53.094;8.800;2023-08-30T06:24:51;99910.88;;;15.32;100.00
29549;BME280;16487;53.094;8.800;2023-08-30T06:27:18;99920.41;;;15.40;100.00
29549;BME280;16487;53.094;8.800;2023-08-30T06:29:45;99905.88;;;15.41;100.00
29549;BME280;16487;53.094;8.800;2023-08-30T06:32:12;99904.91;;;15.44;100.00
29549;BME280;16487;53.094;8.800;2023-08-30T06:34:40;99898.91;;;15.62;100.00
29549;BME280;16487;53.094;8.800;2023-08-30T06:37:07;99885.38;;;15.61;100.00
29549;BME280;16487;53.094;8.800;2023-08-30T06:39:41;99866.75;;;15.63;100.00
29549;BME280;16487;53.094;8.800;2023-08-30T06:42:08;99863.28;;;15.79;100.00
29549;BME280;16487;53.094;8.800;2023-08-30T06:44:37;99824.13;;;15.65;100.00
29549;BME280;16487;53.094;8.800;2023-08-30T06:47:04;99830.56;;;15.76;100.00
29549;BME280;16487;53.094;8.800;2023-08-30T06:49:31;99810.19;;;15.81;100.00
29549;BME280;16487;53.094;8.800;2023-08-30T06:52:00;99800.69;;;15.73;100.00
29549;BME280;16487;53.094;8.800;2023-08-30T06:54:27;99780.72;;;15.66;100.00
29549;BME280;16487;53.094;8.800;2023-08-30T06:56:58;99781.88;;;15.90;100.00
29549;BME280;16487;53.094;8.800;2023-08-30T06:59:26;99751.97;;;15.87;100.00
29549;BME280;16487;53.094;8.800;2023-08-30T07:05:00;99712.38;;;15.85;100.00
29549;BME280;16487;53.094;8.800;2023-08-30T07:07:28;99699.44;;;16.16;100.00
29549;BME280;16487;53.094;8.800;2023-08-30T07:09:55;99680.03;;;16.18;100.00
29549;BME280;16487;53.094;8.800;2023-08-30T07:12:22;99653.72;;;16.26;100.00
29549;BME280;16487;53.094;8.800;2023-08-30T07:14:50;99621.53;;;16.27;100.00
29549;BME280;16487;53.094;8.800;2023-08-30T07:17:17;99584.19;;;16.43;100.00
29549;BME280;16487;53.094;8.800;2023-08-30T07:19:44;99595.97;;;16.31;100.00
29549;BME280;16487;53.094;8.800;2023-08-30T07:22:12;99582.72;;;16.53;100.00
29549;BME280;16487;53.094;8.800;2023-08-30T07:27:48;99537.72;;;16.48;100.00
29549;BME280;16487;53.094;8.800;2023-08-30T07:30:16;99514.13;;;16.45;100.00
29549;BME280;16487;53.094;8.800;2023-08-30T07:32:43;99507.03;;;16.50;100.00
29549;BME280;16487;53.094;8.800;2023-08-30T07:35:10;99498.81;;;16.57;100.00
29549;BME280;16487;53.094;8.800;2023-08-30T07:37:41;99470.16;;;16.70;100.00
29549;BME280;16487;53.094;8.800;2023-08-30T07:40:09;99460.44;;;16.71;100.00
29549;BME280;16487;53.094;8.800;2023-08-30T07:42:37;99433.25;;;16.84;100.00
29549;BME280;16487;53.094;8.800;2023-08-30T07:45:06;99410.94;;;16.97;100.00
29549;BME280;16487;53.094;8.800;2023-08-30T07:47:40;99393.84;;;16.90;100.00
29549;BME280;16487;53.094;8.800;2023-08-30T07:50:08;99354.94;;;16.88;100.00
29549;BME280;16487;53.094;8.800;2023-08-30T07:52:35;99330.34;;;16.94;100.00
29549;BME280;16487;53.094;8.800;2023-08-30T07:55:14;99303.88;;;17.14;100.00
29549;BME280;16487;53.094;8.800;2023-08-30T07:57:41;99254.50;;;17.07;100.00
29549;BME280;16487;53.094;8.800;2023-08-30T08:00:11;99233.63;;;17.27;100.00
29549;BME280;16487;53.094;8.800;2023-08-30T08:02:39;99171.38;;;17.31;100.00
29549;BME280;16487;53.094;8.800;2023-08-30T08:05:07;99139.09;;;17.32;100.00
29549;BME280;16487;53.094;8.800;2023-08-30T08:07:38;99110.31;;;17.20;100.00
29549;BME280;16487;53.094;8.800;2023-08-30T08:10:07;99109.03;;;17.21;100.00
29549;BME280;16487;53.094;8.800;2023-08-30T08:12:35;99110.34;;;17.39;100.00
29549;BME280;16487;53.094;8.800;2023-08-30T08:15:03;99098.09;;;17.60;100.00
29549;BME280;16487;53.094;8.800;2023-08-30T08:17:31;99052.78;;;17.58;100.00
29549;BME280;16487;53.094;8.800;2023-08-30T08:19:59;99020.50;;;17.59;100.00
29549;BME280;16487;53.094;8.800;2023-08-30T08:22:26;98979.81;;;17.73;100.00
29549;BME280;16487;53.094;8.800;2023-08-30T08:24:54;98952.78;;;17.83;100.00
29549;BME280;16487;53.094;8.800;2023-08-30T08:27:22;98939.94;;;18.01;100.00
29549;BME280;16487;53.094;8.800;2023-08-30T08:29:49;98901.75;;;17.87;100.00
29549;BME280;16487;53.094;8.800;2023-08-30T08:32:16;98882.38;;;17.96;100.00
29549;BME280;16487;53.094;8.800;2023-08-30T08:34:45;98887.88;;;17.89;100.00
29549;BME280;16487;53.094;8.800;2023-08-30T08:37:13;98897.16;;;18.28;100.00
29549;BME280;16487;53.094;8.800;2023-08-30T08:39:40;98875.25;;;18.35;100.00
29549;BME280;16487;53.094;8.800;2023-08-30T08:42:07;98858.66;;;18.70;100.00
29549;BME280;16487;53.094;8.800;2023-08-30T08:44:35;98841.22;;;19.05;100.00
29549;BME280;16487;53.094;8.800;2023-08-30T08:47:03;98833.03;;;18.81;100.00
29549;BME280;16487;53.094;8.800;2023-08-30T08:49:30;98820.75;;;18.79;100.00
29549;BME280;16487;53.094;8.800;2023-08-30T08:51:59;98838.56;;;18.87;100.00
29549;BME280;16487;53.094;8.800;2023-08-30T08:54:36;98847.38;;;18.70;100.00
29549;BME280;16487;53.094;8.800;2023-08-30T08:57:04;98849.09;;;19.20;100.00
29549;BME280;16487;53.094;8.800;2023-08-30T08:59:32;98920.28;;;19.05;100.00
29549;BME280;16487;53.094;8.800;2023-08-30T09:01:59;98990.53;;;18.83;100.00
29549;BME280;16487;53.094;8.800;2023-08-30T09:04:30;99037.66;;;18.88;100.00
29549;BME280;16487;53.094;8.800;2023-08-30T09:06:59;99073.09;;;18.89;100.00
29549;BME280;16487;53.094;8.800;2023-08-30T09:09:27;99113.34;;;18.89;100.00
29549;BME280;16487;53.094;8.800;2023-08-30T09:11:54;99145.16;;;18.77;100.00
29549;BME280;16487;53.094;8.800;2023-08-30T09:14:22;99144.75;;;18.99;100.00
29549;BME280;16487;53.094;8.800;2023-08-30T09:16:56;99201.81;;;19.10;100.00
29549;BME280;16487;53.094;8.800;2023-08-30T09:19:25;99228.63;;;19.17;100.00
29549;BME280;16487;53.094;8.800;2023-08-30T09:21:52;99236.19;;;18.96;100.00
29549;BME280;16487;53.094;8.800;2023-08-30T09:24:21;99246.72;;;19.27;100.00
29549;BME280;16487;53.094;8.800;2023-08-30T09:26:49;99298.84;;;19.26;100.00
29549;BME280;16487;53.094;8.800;2023-08-30T09:29:18;99374.78;;;19.35;100.00
29549;BME280;16487;53.094;8.800;2023-08-30T09:31:46;99465.88;;;19.60;100.00
29549;BME280;16487;53.094;8.800;2023-08-30T09:34:13;99464.13;;;19.38;100.00
29549;BME280;16487;53.094;8.800;2023-08-30T09:36:41;99528.13;;;19.54;100.00
29549;BME280;16487;53.094;8.800;2023-08-30T09:39:09;99645.47;;;19.79;100.00
29549;BME280;16487;53.094;8.800;2023-08-30T09:41:40;99635.88;;;20.06;100.00
29549;BME280;16487;53.094;8.800;2023-08-30T09:44:09;99742.78;;;20.13;100.00
29549;BME280;16487;53.094;8.800;2023-08-30T09:46:44;99788.16;;;20.02;100.00
29549;BME280;16487;53.094;8.800;2023-08-30T09:49:20;99803.72;;;20.38;100.00
29549;BME280;16487;53.094;8.800;2023-08-30T09:51:48;99807.09;;;20.56;100.00
29549;BME280;16487;53.094;8.800;2023-08-30T09:54:17;99881.97;;;20.79;100.00
29549;BME280;16487;53.094;8.800;2023-08-30T09:57:06;99848.88;;;20.49;100.00
29549;BME280;16487;53.094;8.800;2023-08-30T09:59:34;99831.22;;;20.81;100.00
29549;BME280;16487;53.094;8.800;2023-08-30T10:02:02;99902.69;;;20.68;100.00
29549;BME280;16487;53.094;8.800;2023-08-30T10:04:31;99974.34;;;21.06;100.00
29549;BME280;16487;53.094;8.800;2023-08-30T10:06:59;99967.63;;;20.61;100.00
29549;BME280;16487;53.094;8.800;2023-08-30T10:09:30;99911.50;;;20.40;100.00
29549;BME280;16487;53.094;8.800;2023-08-30T10:11:57;99800.38;;;20.59;100.00
29549;BME280;16487;53.094;8.800;2023-08-30T10:14:27;99922.66;;;21.87;100.00
29549;BME280;16487;53.094;8.800;2023-08-30T10:17:01;99979.44;;;21.31;100.00
29549;BME280;16487;53.094;8.800;2023-08-30T10:19:31;100059.25;;;21.78;100.00
29549;BME280;16487;53.094;8.800;2023-08-30T10:22:00;100163.91;;;22.56;100.00
29549;BME280;16487;53.094;8.800;2023-08-30T10:24:29;100317.59;;;22.52;100.00
29549;BME280;16487;53.094;8.800;2023-08-30T10:27:08;100297.41;;;21.65;100.00
29549;BME280;16487;53.094;8.800;2023-08-30T10:29:38;100303.06;;;21.65;100.00
29549;BME280;16487;53.094;8.800;2023-08-30T10:32:06;100370.94;;;22.17;100.00
29549;BME280;16487;53.094;8.800;2023-08-30T10:34:34;100398.66;;;21.05;100.00
29549;BME280;16487;53.094;8.800;2023-08-30T10:37:03;100395.81;;;21.76;100.00
29549;BME280;16487;53.094;8.800;2023-08-30T10:39:34;100458.84;;;22.52;100.00
29549;BME280;16487;53.094;8.800;2023-08-30T10:42:08;100514.16;;;22.75;100.00
29549;BME280;16487;53.094;8.800;2023-08-30T10:44:37;100454.28;;;21.08;100.00
29549;BME280;16487;53.094;8.800;2023-08-30T10:47:22;100417.34;;;21.25;100.00
29549;BME280;16487;53.094;8.800;2023-08-30T10:49:49;100424.31;;;21.24;100.00
29549;BME280;16487;53.094;8.800;2023-08-30T10:52:17;100409.38;;;21.23;100.00
29549;BME280;16487;53.094;8.800;2023-08-30T10:54:44;100432.03;;;21.64;100.00
29549;BME280;16487;53.094;8.800;2023-08-30T10:57:15;100470.25;;;22.22;100.00
29549;BME280;16487;53.094;8.800;2023-08-30T11:00:03;100519.59;;;22.73;100.00
29549;BME280;16487;53.094;8.800;2023-08-30T11:02:33;100534.66;;;23.53;100.00
29549;BME280;16487;53.094;8.800;2023-08-30T11:05:01;100545.59;;;22.83;100.00
29549;BME280;16487;53.094;8.800;2023-08-30T11:07:28;100535.22;;;22.31;100.00
29549;BME280;16487;53.094;8.800;2023-08-30T11:09:56;100512.16;;;21.35;100.00
29549;BME280;16487;53.094;8.800;2023-08-30T11:12:23;100470.63;;;20.75;100.00
29549;BME280;16487;53.094;8.800;2023-08-30T11:14:51;100429.47;;;20.63;100.00
29549;BME280;16487;53.094;8.800;2023-08-30T11:17:19;100360.03;;;20.45;100.00
29549;BME280;16487;53.094;8.800;2023-08-30T11:19:50;100325.75;;;20.54;100.00
29549;BME280;16487;53.094;8.800;2023-08-30T11:22:18;100347.72;;;20.89;100.00
29549;BME280;16487;53.094;8.800;2023-08-30T11:24:47;100355.78;;;20.74;100.00
29549;BME280;16487;53.094;8.800;2023-08-30T11:29:42;100378.41;;;20.85;100.00
29549;BME280;16487;53.094;8.800;2023-08-30T11:32:10;100393.34;;;20.80;100.00
29549;BME280;16487;53.094;8.800;2023-08-30T11:34:37;100365.41;;;20.48;100.00
29549;BME280;16487;53.094;8.800;2023-08-30T11:37:05;100340.00;;;20.37;100.00
29549;BME280;16487;53.094;8.800;2023-08-30T11:39:34;100280.91;;;20.06;100.00
29549;BME280;16487;53.094;8.800;2023-08-30T11:42:03;100267.50;;;20.23;100.00
29549;BME280;16487;53.094;8.800;2023-08-30T11:44:45;100247.50;;;19.99;100.00
29549;BME280;16487;53.094;8.800;2023-08-30T11:47:17;100210.22;;;19.95;100.00
29549;BME280;16487;53.094;8.800;2023-08-30T11:49:45;100202.53;;;19.90;100.00
29549;BME280;16487;53.094;8.800;2023-08-30T11:52:14;100194.59;;;19.83;100.00
29549;BME280;16487;53.094;8.800;2023-08-30T11:54:42;100159.59;;;19.86;100.00
29549;BME280;16487;53.094;8.800;2023-08-30T11:57:10;100131.81;;;19.90;100.00
29549;BME280;16487;53.094;8.800;2023-08-30T11:59:37;100144.56;;;20.13;100.00
29549;BME280;16487;53.094;8.800;2023-08-30T12:02:06;100182.53;;;20.34;100.00
29549;BME280;16487;53.094;8.800;2023-08-30T12:04:39;100219.09;;;20.68;100.00
29549;BME280;16487;53.094;8.800;2023-08-30T12:07:07;100262.41;;;21.03;100.00
29549;BME280;16487;53.094;8.800;2023-08-30T12:09:35;100320.88;;;20.95;100.00
29549;BME280;16487;53.094;8.800;2023-08-30T12:12:05;100307.59;;;20.85;100.00
29549;BME280;16487;53.094;8.800;2023-08-30T12:14:33;100281.69;;;20.64;100.00
29549;BME280;16487;53.094;8.800;2023-08-30T12:17:00;100264.94;;;20.66;100.00
29549;BME280;16487;53.094;8.800;2023-08-30T12:19:28;100264.25;;;20.55;100.00
29549;BME280;16487;53.094;8.800;2023-08-30T12:21:55;100235.16;;;20.54;100.00
29549;BME280;16487;53.094;8.800;2023-08-30T12:24:22;100209.69;;;20.48;100.00
29549;BME280;16487;53.094;8.800;2023-08-30T12:26:51;100226.00;;;20.37;100.00
29549;BME280;16487;53.094;8.800;2023-08-30T12:29:18;100246.28;;;20.46;100.00
29549;BME280;16487;53.094;8.800;2023-08-30T12:31:45;100251.19;;;20.40;100.00
29549;BME280;16487;53.094;8.800;2023-08-30T12:34:13;100259.97;;;20.37;100.00
29549;BME280;16487;53.094;8.800;2023-08-30T12:36:40;100219.09;;;20.27;100.00
29549;BME280;16487;53.094;8.800;2023-08-30T12:39:07;100229.34;;;20.35;100.00
29549;BME280;16487;53.094;8.800;2023-08-30T12:41:34;100219.34;;;20.29;100.00
29549;BME280;16487;53.094;8.800;2023-08-30T12:44:03;100210.97;;;20.53;100.00
29549;BME280;16487;53.094;8.800;2023-08-30T12:46:31;100219.63;;;20.25;100.00
29549;BME280;16487;53.094;8.800;2023-08-30T12:48:58;100237.59;;;20.33;100.00
29549;BME280;16487;53.094;8.800;2023-08-30T12:51:25;100220.34;;;20.31;100.00
29549;BME280;16487;53.094;8.800;2023-08-30T12:53:53;100208.50;;;20.33;100.00
29549;BME280;16487;53.094;8.800;2023-08-30T12:56:20;100187.22;;;20.21;100.00
29549;BME280;16487;53.094;8.800;2023-08-30T12:58:47;100154.69;;;19.98;100.00
29549;BME280;16487;53.094;8.800;2023-08-30T13:01:16;100029.03;;;19.82;100.00
29549;BME280;16487;53.094;8.800;2023-08-30T13:03:43;99521.59;;;19.22;100.00